Time;durP1;ratioP1;P1;durP2;ratioP2;P2;SDS_P1;SDS_P2;PMS_P1;PMS_P2;Temp;Humidity;BMP_temperature;BMP_pressure;BME280_temperature;BME280_humidity;BME280_pressure;Samples;Min_cycle;Max_cycle;Signal;HPM_P1;HPM_P2
2022/08/02 00:01:05;;;;;;;6.12;4.62;;;;;;;;;;1799047;79;21041;-67
2022/08/02 00:03:31;;;;;;;6.42;5.17;;;;;;;;;;1794608;80;21061;-66
2022/08/02 00:05:59;;;;;;;6.60;5.80;;;;;;;;;;1796936;79;21018;-65
2022/08/02 00:08:25;;;;;;;6.92;4.65;;;;;;;;;;1783328;79;21073;-65
2022/08/02 00:10:51;;;;;;;7.72;5.10;;;;;;;;;;1803262;79;21037;-66
2022/08/02 00:13:18;;;;;;;8.58;5.42;;;;;;;;;;1804952;79;21060;-66
2022/08/02 00:15:44;;;;;;;6.80;6.10;;;;;;;;;;1804195;79;21588;-66
2022/08/02 00:18:10;;;;;;;5.75;5.00;;;;;;;;;;1802938;79;21170;-66
2022/08/02 00:20:36;;;;;;;7.78;4.85;;;;;;;;;;1805243;79;21048;-67
2022/08/02 00:23:03;;;;;;;7.90;5.45;;;;;;;;;;1805344;79;21080;-66
2022/08/02 00:25:29;;;;;;;7.17;5.83;;;;;;;;;;1805147;79;21170;-65
2022/08/02 00:27:55;;;;;;;7.65;6.80;;;;;;;;;;1800126;79;21022;-65
2022/08/02 00:30:21;;;;;;;5.70;5.15;;;;;;;;;;1805224;79;21477;-66
2022/08/02 00:32:48;;;;;;;7.55;6.62;;;;;;;;;;1804551;79;21108;-66
2022/08/02 00:35:14;;;;;;;7.95;7.00;;;;;;;;;;1801786;79;21048;-66
2022/08/02 00:37:40;;;;;;;8.15;7.35;;;;;;;;;;1781152;79;21064;-65
2022/08/02 00:40:08;;;;;;;9.68;6.70;;;;;;;;;;1778488;81;21091;-66
2022/08/02 00:42:34;;;;;;;11.43;8.10;;;;;;;;;;1779166;81;21016;-66
2022/08/02 00:45:01;;;;;;;9.53;8.43;;;;;;;;;;1778714;81;21500;-66
2022/08/02 00:47:27;;;;;;;9.00;6.70;;;;;;;;;;1795064;79;21011;-66
2022/08/02 00:49:53;;;;;;;10.45;7.85;;;;;;;;;;1791225;79;21068;-66
2022/08/02 00:52:19;;;;;;;9.78;7.83;;;;;;;;;;1794714;80;21117;-67
2022/08/02 00:54:45;;;;;;;11.12;7.58;;;;;;;;;;1794679;80;21464;-66
2022/08/02 00:57:11;;;;;;;9.50;8.40;;;;;;;;;;1799914;79;21071;-66
2022/08/02 00:59:37;;;;;;;9.40;8.23;;;;;;;;;;1804102;79;21516;-66
2022/08/02 01:04:53;;;;;;;8.53;7.58;;;;;;;;;;1791423;78;74246;-69
2022/08/02 01:07:19;;;;;;;8.43;6.92;;;;;;;;;;1778073;79;21061;-70
2022/08/02 01:09:46;;;;;;;9.30;6.50;;;;;;;;;;1787700;79;21481;-70
2022/08/02 01:12:13;;;;;;;8.93;6.33;;;;;;;;;;1832788;78;21032;-70
2022/08/02 01:14:40;;;;;;;9.88;7.60;;;;;;;;;;1821103;78;21048;-71
2022/08/02 01:17:08;;;;;;;10.53;7.75;;;;;;;;;;1829393;78;21044;-70
2022/08/02 01:19:48;;;;;;;10.45;8.28;;;;;;;;;;1820211;78;21533;-71
2022/08/02 01:22:19;;;;;;;8.83;7.35;;;;;;;;;;1803779;78;21017;-70
2022/08/02 01:24:50;;;;;;;7.30;6.10;;;;;;;;;;1803118;79;21084;-71
2022/08/02 01:27:30;;;;;;;9.30;6.72;;;;;;;;;;1802384;78;21012;-71
2022/08/02 01:29:57;;;;;;;7.85;7.05;;;;;;;;;;1811616;78;21040;-70
2022/08/02 01:32:25;;;;;;;7.97;6.83;;;;;;;;;;1819105;78;21043;-71
2022/08/02 01:35:02;;;;;;;8.83;6.83;;;;;;;;;;1821904;78;21551;-71
2022/08/02 01:37:30;;;;;;;8.78;7.55;;;;;;;;;;1795222;79;21022;-71
2022/08/02 01:39:57;;;;;;;11.30;8.10;;;;;;;;;;1804292;79;21024;-71
2022/08/02 01:42:24;;;;;;;8.33;6.35;;;;;;;;;;1804699;78;21523;-71
2022/08/02 01:44:50;;;;;;;7.22;6.00;;;;;;;;;;1802875;79;21535;-71
2022/08/02 01:47:17;;;;;;;6.47;5.80;;;;;;;;;;1776237;78;21070;-71
2022/08/02 01:49:45;;;;;;;8.53;7.40;;;;;;;;;;1776132;79;21039;-71
2022/08/02 01:52:20;;;;;;;9.48;7.62;;;;;;;;;;1803608;79;21051;-69
2022/08/02 01:54:48;;;;;;;8.20;5.85;;;;;;;;;;1804436;78;21011;-70
2022/08/02 01:57:14;;;;;;;9.28;5.92;;;;;;;;;;1800514;78;20995;-70
2022/08/02 01:59:40;;;;;;;10.05;6.83;;;;;;;;;;1802241;79;21019;-70
2022/08/02 02:02:06;;;;;;;11.75;8.23;;;;;;;;;;1799180;78;21012;-70
2022/08/02 02:04:33;;;;;;;10.35;7.22;;;;;;;;;;1804888;78;21080;-70
2022/08/02 02:07:00;;;;;;;11.73;6.62;;;;;;;;;;1811136;79;21032;-70
2022/08/02 02:09:27;;;;;;;12.20;7.58;;;;;;;;;;1811142;79;21026;-70
2022/08/02 02:11:53;;;;;;;8.93;7.35;;;;;;;;;;1811218;79;21008;-70
2022/08/02 02:14:20;;;;;;;10.03;7.83;;;;;;;;;;1809546;78;21061;-70
2022/08/02 02:16:47;;;;;;;11.40;6.70;;;;;;;;;;1810906;78;21091;-71
2022/08/02 02:19:15;;;;;;;9.45;8.23;;;;;;;;;;1810910;79;21097;-71
2022/08/02 02:21:41;;;;;;;9.33;7.65;;;;;;;;;;1811191;79;21044;-71
2022/08/02 02:24:08;;;;;;;12.50;8.28;;;;;;;;;;1811255;79;21058;-72
2022/08/02 02:26:35;;;;;;;9.28;7.83;;;;;;;;;;1810752;78;21010;-72
2022/08/02 02:29:02;;;;;;;13.00;7.97;;;;;;;;;;1810946;79;21053;-71
2022/08/02 02:31:29;;;;;;;8.28;6.80;;;;;;;;;;1810993;79;21013;-71
2022/08/02 02:33:57;;;;;;;8.43;7.53;;;;;;;;;;1810961;79;21550;-71
2022/08/02 02:36:23;;;;;;;10.40;8.28;;;;;;;;;;1810346;78;21054;-72
2022/08/02 02:38:50;;;;;;;10.98;8.63;;;;;;;;;;1811164;79;21579;-71
2022/08/02 02:41:16;;;;;;;9.45;7.17;;;;;;;;;;1811002;79;21068;-71
2022/08/02 02:43:42;;;;;;;13.65;7.53;;;;;;;;;;1811203;79;21027;-74
2022/08/02 02:46:09;;;;;;;10.08;7.40;;;;;;;;;;1810393;78;21509;-72
2022/08/02 02:48:35;;;;;;;9.65;8.48;;;;;;;;;;1810896;79;21052;-70
2022/08/02 02:51:04;;;;;;;11.83;8.93;;;;;;;;;;1811140;79;21080;-71
2022/08/02 02:53:30;;;;;;;10.72;8.40;;;;;;;;;;1810963;78;21010;-70
2022/08/02 02:55:57;;;;;;;9.65;7.75;;;;;;;;;;1810467;79;21328;-70
2022/08/02 02:58:23;;;;;;;8.80;7.40;;;;;;;;;;1811144;78;21042;-70
2022/08/02 03:03:34;;;;;;;8.83;7.22;;;;;;;;;;1811229;79;21060;-70
2022/08/02 03:06:00;;;;;;;9.53;8.33;;;;;;;;;;1824344;78;21044;-71
2022/08/02 03:08:28;;;;;;;9.60;7.65;;;;;;;;;;1826798;78;21024;-71
2022/08/02 03:10:54;;;;;;;10.38;7.40;;;;;;;;;;1826344;78;21538;-70
2022/08/02 03:13:20;;;;;;;12.35;8.20;;;;;;;;;;1822112;78;21557;-71
2022/08/02 03:15:47;;;;;;;8.43;7.50;;;;;;;;;;1823010;78;21020;-71
2022/08/02 03:18:29;;;;;;;9.95;8.10;;;;;;;;;;1826257;78;21024;-71
2022/08/02 03:20:56;;;;;;;9.68;6.90;;;;;;;;;;1824453;78;21049;-71
2022/08/02 03:23:23;;;;;;;9.88;6.87;;;;;;;;;;1794892;80;21076;-71
2022/08/02 03:25:49;;;;;;;9.88;7.55;;;;;;;;;;1812426;78;21083;-71
2022/08/02 03:28:15;;;;;;;8.53;7.47;;;;;;;;;;1826586;78;21089;-71
2022/08/02 03:30:41;;;;;;;11.43;8.00;;;;;;;;;;1827210;78;21093;-71
2022/08/02 03:33:07;;;;;;;10.20;6.80;;;;;;;;;;1827270;78;21061;-71
2022/08/02 03:35:34;;;;;;;9.68;6.95;;;;;;;;;;1827224;78;21039;-71
2022/08/02 03:38:00;;;;;;;8.98;7.17;;;;;;;;;;1826853;77;21061;-71
2022/08/02 03:40:26;;;;;;;10.55;7.30;;;;;;;;;;1826998;78;21049;-71
2022/08/02 03:42:52;;;;;;;8.53;6.62;;;;;;;;;;1827424;78;21034;-70
2022/08/02 03:45:19;;;;;;;9.05;7.72;;;;;;;;;;1827017;78;21026;-71
2022/08/02 03:47:45;;;;;;;8.13;6.75;;;;;;;;;;1824027;78;21035;-71
2022/08/02 03:50:12;;;;;;;9.68;6.67;;;;;;;;;;1824505;78;21013;-71
2022/08/02 03:52:40;;;;;;;8.68;7.25;;;;;;;;;;1822078;78;21065;-71
2022/08/02 03:55:07;;;;;;;13.13;8.35;;;;;;;;;;1822322;79;21030;-71
2022/08/02 03:57:35;;;;;;;9.23;6.97;;;;;;;;;;1825028;77;21529;-72
2022/08/02 04:00:02;;;;;;;9.73;6.80;;;;;;;;;;1787691;79;21021;-72
2022/08/02 04:02:30;;;;;;;11.12;6.90;;;;;;;;;;1801068;79;21075;-71
2022/08/02 04:04:56;;;;;;;9.05;7.28;;;;;;;;;;1803484;78;21101;-71
2022/08/02 04:07:22;;;;;;;10.90;7.40;;;;;;;;;;1795874;79;21045;-71
2022/08/02 04:09:49;;;;;;;9.98;6.37;;;;;;;;;;1804652;79;21041;-72
2022/08/02 04:12:15;;;;;;;8.28;6.60;;;;;;;;;;1806904;79;21496;-70
2022/08/02 04:14:41;;;;;;;7.67;6.45;;;;;;;;;;1784517;79;21043;-71
2022/08/02 04:17:07;;;;;;;8.95;7.25;;;;;;;;;;1778242;79;21041;-71
2022/08/02 04:19:38;;;;;;;9.40;7.33;;;;;;;;;;1786149;79;21046;-72
2022/08/02 04:22:05;;;;;;;9.68;6.37;;;;;;;;;;1797758;79;21836;-72
2022/08/02 04:24:38;;;;;;;9.08;6.95;;;;;;;;;;1788259;79;21098;-72
2022/08/02 04:27:04;;;;;;;10.25;6.87;;;;;;;;;;1791254;79;21060;-71
2022/08/02 04:29:31;;;;;;;8.00;6.47;;;;;;;;;;1806895;79;21062;-72
2022/08/02 04:31:58;;;;;;;7.90;6.47;;;;;;;;;;1806764;79;21021;-73
2022/08/02 04:34:24;;;;;;;8.13;6.72;;;;;;;;;;1806112;79;21528;-73
2022/08/02 04:36:50;;;;;;;9.80;6.55;;;;;;;;;;1806458;79;21001;-73
2022/08/02 04:39:16;;;;;;;7.10;6.30;;;;;;;;;;1788516;79;20992;-73
2022/08/02 04:41:43;;;;;;;9.80;6.85;;;;;;;;;;1761928;81;21510;-72
2022/08/02 04:44:09;;;;;;;9.08;6.67;;;;;;;;;;1804122;79;21053;-71
2022/08/02 04:46:36;;;;;;;7.87;6.40;;;;;;;;;;1807190;79;21061;-74
2022/08/02 04:49:02;;;;;;;8.78;6.22;;;;;;;;;;1806771;79;21018;-73
2022/08/02 04:51:28;;;;;;;8.43;5.85;;;;;;;;;;1806942;79;21520;-74
2022/08/02 04:53:55;;;;;;;7.45;6.50;;;;;;;;;;1786891;79;21059;-71
2022/08/02 04:56:21;;;;;;;8.48;6.37;;;;;;;;;;1801704;79;21099;-71
2022/08/02 04:58:47;;;;;;;10.50;6.10;;;;;;;;;;1778468;79;21513;-73
2022/08/02 05:01:13;;;;;;;7.67;6.20;;;;;;;;;;1775197;81;21561;-72
2022/08/02 05:03:39;;;;;;;8.35;7.08;;;;;;;;;;1776541;79;21093;-72
2022/08/02 05:06:06;;;;;;;9.25;6.90;;;;;;;;;;1785544;79;21053;-72
2022/08/02 05:08:32;;;;;;;6.80;6.08;;;;;;;;;;1801970;79;21465;-73
2022/08/02 05:12:20;;;;;;;7.45;5.45;;;;;;;;;;1784376;79;23317;-70
2022/08/02 05:14:45;;;;;;;6.85;5.12;;;;;;;;;;1757799;81;21079;-69
2022/08/02 05:17:11;;;;;;;8.08;5.15;;;;;;;;;;1755410;81;21056;-72
2022/08/02 05:19:37;;;;;;;5.97;4.65;;;;;;;;;;1752653;81;21032;-71
2022/08/02 05:22:03;;;;;;;5.37;4.65;;;;;;;;;;1755413;81;20997;-69
2022/08/02 05:24:29;;;;;;;6.33;4.75;;;;;;;;;;1757407;81;22112;-71
2022/08/02 05:26:55;;;;;;;13.93;10.35;;;;;;;;;;1756593;81;22088;-70
2022/08/02 05:29:21;;;;;;;9.88;5.58;;;;;;;;;;1754996;81;21532;-70
2022/08/02 05:31:48;;;;;;;6.33;5.03;;;;;;;;;;1753306;81;21041;-70
2022/08/02 05:34:14;;;;;;;6.70;4.83;;;;;;;;;;1741654;81;21135;-70
2022/08/02 05:36:40;;;;;;;8.75;5.10;;;;;;;;;;1760823;81;21041;-69
2022/08/02 05:39:06;;;;;;;7.15;4.72;;;;;;;;;;1749339;81;21071;-70
2022/08/02 05:41:32;;;;;;;6.10;4.40;;;;;;;;;;1757847;81;21064;-69
2022/08/02 05:43:58;;;;;;;5.30;4.10;;;;;;;;;;1757929;81;21013;-68
2022/08/02 05:46:24;;;;;;;6.47;4.28;;;;;;;;;;1745286;81;21028;-69
2022/08/02 05:48:50;;;;;;;5.08;4.05;;;;;;;;;;1747527;81;20997;-69
2022/08/02 05:51:23;;;;;;;6.95;4.60;;;;;;;;;;1749732;81;21044;-69
2022/08/02 05:53:51;;;;;;;5.33;4.30;;;;;;;;;;1749532;81;21014;-69
2022/08/02 05:56:24;;;;;;;8.70;4.60;;;;;;;;;;1739758;81;21035;-70
2022/08/02 05:58:50;;;;;;;;;;;;;;;;;;1755816;81;21092;-69
2022/08/02 06:01:18;;;;;;;5.33;4.55;;;;;;;;;;1736815;81;20454;-69
2022/08/02 06:03:48;;;;;;;5.03;4.30;;;;;;;;;;1725762;82;21103;-69
2022/08/02 06:06:19;;;;;;;6.40;4.70;;;;;;;;;;1727939;83;21029;-70
2022/08/02 06:08:47;;;;;;;5.22;4.10;;;;;;;;;;1727957;83;21048;-70
2022/08/02 06:11:14;;;;;;;5.62;4.55;;;;;;;;;;1714966;83;21037;-70
2022/08/02 06:13:40;;;;;;;7.30;5.12;;;;;;;;;;1702003;84;21036;-70
2022/08/02 06:16:06;;;;;;;6.45;4.05;;;;;;;;;;1703521;82;21057;-70
2022/08/02 06:18:32;;;;;;;6.42;4.47;;;;;;;;;;1698497;83;21020;-69
2022/08/02 06:21:00;;;;;;;5.58;4.30;;;;;;;;;;1702469;84;21085;-70
2022/08/02 06:23:26;;;;;;;7.25;4.65;;;;;;;;;;1705885;84;20997;-70
2022/08/02 06:25:53;;;;;;;7.28;3.83;;;;;;;;;;1702346;82;21038;-69
2022/08/02 06:28:19;;;;;;;5.83;4.58;;;;;;;;;;1698781;84;21041;-69
2022/08/02 06:30:45;;;;;;;5.70;4.12;;;;;;;;;;1699458;84;21053;-69
2022/08/02 06:33:12;;;;;;;8.70;5.37;;;;;;;;;;1709142;83;20974;-68
2022/08/02 06:35:46;;;;;;;7.15;5.45;;;;;;;;;;1705600;84;21029;-69
2022/08/02 06:38:19;;;;;;;9.83;5.20;;;;;;;;;;1705916;84;20965;-69
2022/08/02 06:40:45;;;;;;;;;;;;;;;;;;1713264;84;21342;-69
2022/08/02 06:43:12;;;;;;;7.28;5.10;;;;;;;;;;1710832;84;20125;-70
2022/08/02 06:45:38;;;;;;;7.55;5.50;;;;;;;;;;1701588;82;21025;-69
2022/08/02 06:48:04;;;;;;;8.93;6.03;;;;;;;;;;1729765;82;21506;-69
2022/08/02 06:50:31;;;;;;;6.72;5.55;;;;;;;;;;1705889;82;21061;-70
2022/08/02 06:52:57;;;;;;;9.95;5.70;;;;;;;;;;1709311;84;21596;-70
2022/08/02 06:55:23;;;;;;;7.92;4.72;;;;;;;;;;1698654;84;21050;-68
2022/08/02 06:57:50;;;;;;;6.33;4.60;;;;;;;;;;1706154;83;21540;-69
2022/08/02 07:00:16;;;;;;;5.12;4.55;;;;;;;;;;1704171;84;21011;-70
2022/08/02 07:02:42;;;;;;;6.58;4.75;;;;;;;;;;1704087;83;21682;-70
2022/08/02 07:05:08;;;;;;;6.00;4.30;;;;;;;;;;1701623;83;21694;-70
2022/08/02 07:07:34;;;;;;;7.08;4.95;;;;;;;;;;1694338;83;21116;-70
2022/08/02 07:10:01;;;;;;;9.98;4.90;;;;;;;;;;1708607;83;21063;-70
2022/08/02 07:12:30;;;;;;;5.97;4.53;;;;;;;;;;1658026;85;21769;-70
2022/08/02 07:14:57;;;;;;;6.62;4.92;;;;;;;;;;1650033;87;21056;-71
2022/08/02 07:17:23;;;;;;;7.58;5.15;;;;;;;;;;1651745;87;21072;-71
2022/08/02 07:19:49;;;;;;;5.70;4.20;;;;;;;;;;1653268;87;21099;-70
2022/08/02 07:22:17;;;;;;;7.97;4.60;;;;;;;;;;1654272;87;22198;-70
2022/08/02 07:24:43;;;;;;;6.40;4.72;;;;;;;;;;1640459;85;21053;-70
2022/08/02 07:27:09;;;;;;;6.35;4.45;;;;;;;;;;1631095;86;21047;-71
2022/08/02 07:29:36;;;;;;;5.80;4.28;;;;;;;;;;1632588;87;21079;-70
2022/08/02 07:32:02;;;;;;;5.65;4.53;;;;;;;;;;1631329;87;22479;-70
2022/08/02 07:34:28;;;;;;;6.72;4.95;;;;;;;;;;1644384;87;21055;-72
2022/08/02 07:36:54;;;;;;;5.87;5.10;;;;;;;;;;1644478;87;21028;-72
2022/08/02 07:39:20;;;;;;;8.10;4.67;;;;;;;;;;1645727;86;21040;-72
2022/08/02 07:41:50;;;;;;;8.65;5.25;;;;;;;;;;1644381;87;21028;-71
2022/08/02 07:44:14;;;;;;;7.90;4.92;;;;;;;;;;1645327;86;21012;-72
2022/08/02 07:46:41;;;;;;;6.58;5.10;;;;;;;;;;1643479;85;21030;-71
2022/08/02 07:49:07;;;;;;;5.90;4.58;;;;;;;;;;1645561;86;21047;-70
2022/08/02 07:51:34;;;;;;;11.18;5.47;;;;;;;;;;1645995;85;21558;-72
2022/08/02 07:54:00;;;;;;;7.35;4.97;;;;;;;;;;1646046;87;21024;-72
2022/08/02 07:56:26;;;;;;;8.73;5.08;;;;;;;;;;1641267;87;21004;-72
2022/08/02 07:58:53;;;;;;;9.95;5.25;;;;;;;;;;1629976;87;21035;-71
2022/08/02 08:01:19;;;;;;;17.25;5.05;;;;;;;;;;1645518;86;21519;-71
2022/08/02 08:03:45;;;;;;;8.85;5.55;;;;;;;;;;1645820;85;22282;-72
2022/08/02 08:06:11;;;;;;;7.87;4.90;;;;;;;;;;1645351;85;21580;-72
2022/08/02 08:08:36;;;;;;;8.15;5.20;;;;;;;;;;1645258;87;21016;-73
2022/08/02 08:11:03;;;;;;;9.13;4.83;;;;;;;;;;1646828;85;21045;-73
2022/08/02 08:13:29;;;;;;;10.78;4.80;;;;;;;;;;1675831;85;21114;-71
2022/08/02 08:15:55;;;;;;;8.10;5.60;;;;;;;;;;1670328;85;21072;-72
2022/08/02 08:18:21;;;;;;;9.38;5.45;;;;;;;;;;1648249;86;21552;-71
2022/08/02 08:20:47;;;;;;;6.65;5.25;;;;;;;;;;1663330;85;21030;-70
2022/08/02 08:23:13;;;;;;;8.33;5.60;;;;;;;;;;1669055;85;21038;-70
2022/08/02 08:25:39;;;;;;;9.13;6.17;;;;;;;;;;1668885;85;21547;-71
2022/08/02 08:28:06;;;;;;;10.48;6.30;;;;;;;;;;1667309;85;21060;-70
2022/08/02 08:30:32;;;;;;;7.12;6.33;;;;;;;;;;1667789;86;21577;-70
2022/08/02 08:32:58;;;;;;;9.10;5.65;;;;;;;;;;1667510;85;21534;-71
2022/08/02 08:35:24;;;;;;;22.98;17.62;;;;;;;;;;1661188;84;21112;-73
2022/08/02 08:37:51;;;;;;;49.15;43.05;;;;;;;;;;1667201;84;21071;-72
2022/08/02 08:40:18;;;;;;;29.12;23.65;;;;;;;;;;1661321;84;21687;-72
2022/08/02 08:42:44;;;;;;;11.43;7.75;;;;;;;;;;1661942;85;21045;-70
2022/08/02 08:45:10;;;;;;;10.63;6.75;;;;;;;;;;1668723;85;21037;-68
2022/08/02 08:47:37;;;;;;;7.53;5.62;;;;;;;;;;1668124;85;21037;-73
2022/08/02 08:50:05;;;;;;;6.80;6.10;;;;;;;;;;1669808;85;21047;-71
2022/08/02 08:52:33;;;;;;;7.22;5.87;;;;;;;;;;1647567;85;21054;-72
2022/08/02 08:54:59;;;;;;;10.20;6.95;;;;;;;;;;1669897;85;21513;-72
2022/08/02 08:57:25;;;;;;;10.23;6.35;;;;;;;;;;1668684;85;21103;-72
2022/08/02 08:59:51;;;;;;;7.40;6.10;;;;;;;;;;1670989;85;21045;-72
2022/08/02 09:02:17;;;;;;;10.72;6.83;;;;;;;;;;1670902;84;21056;-72
2022/08/02 09:04:43;;;;;;;9.10;6.90;;;;;;;;;;1674777;85;21072;-72
2022/08/02 09:07:09;;;;;;;7.70;5.97;;;;;;;;;;1707072;82;21077;-70
2022/08/02 09:09:35;;;;;;;8.80;6.20;;;;;;;;;;1708679;83;21016;-72
2022/08/02 09:12:14;;;;;;;9.43;7.08;;;;;;;;;;1708056;82;21622;-73
2022/08/02 09:14:40;;;;;;;7.62;6.10;;;;;;;;;;1696847;83;20997;-72
2022/08/02 09:17:07;;;;;;;9.38;7.03;;;;;;;;;;1711413;84;21588;-72
2022/08/02 09:19:35;;;;;;;8.70;6.92;;;;;;;;;;1706491;82;21053;-72
2022/08/02 09:22:05;;;;;;;8.83;6.72;;;;;;;;;;1701330;82;21585;-73
2022/08/02 09:24:49;;;;;;;8.53;6.58;;;;;;;;;;1703667;82;21037;-72
2022/08/02 09:27:18;;;;;;;10.18;6.80;;;;;;;;;;1707721;83;21070;-74
2022/08/02 09:29:45;;;;;;;10.48;7.50;;;;;;;;;;1709008;83;21066;-77
2022/08/02 09:32:11;;;;;;;9.30;6.08;;;;;;;;;;1710450;82;21569;-72
2022/08/02 09:34:45;;;;;;;8.13;6.40;;;;;;;;;;1705093;83;21046;-74
2022/08/02 09:37:24;;;;;;;13.00;9.73;;;;;;;;;;1710288;83;21042;-73
2022/08/02 09:39:50;;;;;;;17.87;12.00;;;;;;;;;;1697704;84;21492;-71
2022/08/02 09:42:16;;;;;;;16.82;13.48;;;;;;;;;;1706865;83;21687;-71
2022/08/02 09:44:52;;;;;;;9.03;7.47;;;;;;;;;;1711107;82;20984;-64
2022/08/02 09:47:18;;;;;;;8.65;7.12;;;;;;;;;;1702447;83;21051;-64
2022/08/02 09:49:45;;;;;;;10.00;8.70;;;;;;;;;;1671194;85;21085;-64
2022/08/02 09:52:11;;;;;;;11.28;7.62;;;;;;;;;;1642057;86;21643;-63
2022/08/02 09:54:37;;;;;;;14.15;9.28;;;;;;;;;;1700123;83;21026;-65
2022/08/02 09:57:03;;;;;;;10.58;8.93;;;;;;;;;;1690347;83;20997;-63
2022/08/02 09:59:29;;;;;;;11.78;7.58;;;;;;;;;;1711438;83;21005;-64
2022/08/02 10:01:57;;;;;;;11.55;7.70;;;;;;;;;;1709508;83;21117;-63
2022/08/02 10:04:24;;;;;;;10.15;6.80;;;;;;;;;;1706728;84;21238;-62
2022/08/02 10:06:51;;;;;;;9.08;7.20;;;;;;;;;;1697188;84;21026;-63
2022/08/02 10:09:17;;;;;;;7.67;6.97;;;;;;;;;;1711142;83;21083;-62
2022/08/02 10:11:44;;;;;;;8.10;6.65;;;;;;;;;;1711542;84;21112;-62
2022/08/02 10:14:10;;;;;;;8.03;6.58;;;;;;;;;;1706390;83;21072;-63
2022/08/02 10:16:37;;;;;;;7.92;6.17;;;;;;;;;;1711543;84;21081;-62
2022/08/02 10:19:03;;;;;;;6.87;6.10;;;;;;;;;;1660823;86;21111;-62
2022/08/02 10:21:41;;;;;;;8.10;6.10;;;;;;;;;;1652547;86;21596;-63
2022/08/02 10:24:11;;;;;;;6.83;6.10;;;;;;;;;;1653317;87;21042;-61
2022/08/02 10:26:38;;;;;;;7.03;6.00;;;;;;;;;;1711557;84;21598;-62
2022/08/02 10:29:04;;;;;;;7.53;6.08;;;;;;;;;;1708798;84;21042;-63
2022/08/02 10:31:32;;;;;;;9.00;6.62;;;;;;;;;;1702193;82;21060;-62
2022/08/02 10:33:59;;;;;;;7.30;5.50;;;;;;;;;;1706790;84;21009;-63
2022/08/02 10:36:26;;;;;;;6.65;5.37;;;;;;;;;;1712379;82;21033;-63
2022/08/02 10:38:53;;;;;;;7.58;5.95;;;;;;;;;;1675293;85;21094;-62
2022/08/02 10:41:37;;;;;;;9.70;6.25;;;;;;;;;;1653690;85;21083;-63
2022/08/02 10:44:03;;;;;;;7.60;6.62;;;;;;;;;;1720667;83;21611;-63
2022/08/02 10:46:32;;;;;;;7.65;6.55;;;;;;;;;;1710113;82;21064;-63
2022/08/02 10:49:03;;;;;;;8.70;7.35;;;;;;;;;;1711684;84;21060;-63
2022/08/02 10:51:48;;;;;;;9.80;6.60;;;;;;;;;;1660356;85;21056;-63
2022/08/02 10:54:19;;;;;;;8.65;6.80;;;;;;;;;;1653145;87;21112;-63
2022/08/02 10:56:46;;;;;;;8.20;6.50;;;;;;;;;;1643031;86;21033;-62
2022/08/02 10:59:31;;;;;;;8.38;5.87;;;;;;;;;;1692855;84;21053;-62
2022/08/02 11:02:01;;;;;;;12.33;6.28;;;;;;;;;;1705076;84;21680;-61
2022/08/02 11:04:44;;;;;;;7.15;5.85;;;;;;;;;;1707346;82;20998;-61
2022/08/02 11:07:16;;;;;;;7.12;6.20;;;;;;;;;;1708129;83;21070;-62
2022/08/02 11:09:43;;;;;;;7.08;6.05;;;;;;;;;;1678950;84;21096;-62
2022/08/02 11:12:13;;;;;;;8.28;5.97;;;;;;;;;;1678321;84;21077;-64
2022/08/02 11:14:44;;;;;;;7.03;5.83;;;;;;;;;;1704195;83;21185;-63
2022/08/02 11:17:15;;;;;;;8.30;5.42;;;;;;;;;;1710790;84;21616;-62
2022/08/02 11:20:00;;;;;;;7.22;5.30;;;;;;;;;;1706861;83;21074;-63
2022/08/02 11:22:26;;;;;;;7.62;5.58;;;;;;;;;;1708314;82;21033;-63
2022/08/02 11:24:52;;;;;;;7.42;5.85;;;;;;;;;;1704554;84;21007;-62
2022/08/02 11:27:19;;;;;;;9.40;5.78;;;;;;;;;;1701982;83;21034;-62
2022/08/02 11:29:47;;;;;;;7.72;5.47;;;;;;;;;;1710525;82;21096;-63
2022/08/02 11:32:15;;;;;;;10.08;5.90;;;;;;;;;;1698235;83;21836;-63
2022/08/02 11:34:42;;;;;;;6.67;5.72;;;;;;;;;;1710656;84;21070;-62
2022/08/02 11:37:09;;;;;;;6.37;5.72;;;;;;;;;;1709571;84;21112;-63
2022/08/02 11:39:35;;;;;;;10.75;6.33;;;;;;;;;;1709416;84;21045;-62
2022/08/02 11:42:01;;;;;;;8.15;6.22;;;;;;;;;;1691757;85;21080;-62
2022/08/02 11:44:27;;;;;;;7.53;6.10;;;;;;;;;;1694184;82;21064;-62
2022/08/02 11:46:58;;;;;;;9.58;5.83;;;;;;;;;;1702784;83;21048;-62
2022/08/02 11:49:24;;;;;;;8.38;5.50;;;;;;;;;;1708659;83;21600;-62
2022/08/02 11:51:54;;;;;;;6.90;5.60;;;;;;;;;;1679467;84;21091;-63
2022/08/02 11:54:25;;;;;;;7.10;5.15;;;;;;;;;;1675369;84;21081;-63
2022/08/02 11:56:51;;;;;;;6.90;5.05;;;;;;;;;;1642451;85;21125;-62
2022/08/02 11:59:17;;;;;;;6.28;4.85;;;;;;;;;;1649691;85;21581;-64
2022/08/02 12:01:43;;;;;;;18.50;13.88;;;;;;;;;;1668006;85;21110;-64
2022/08/02 12:04:10;;;;;;;60.75;54.33;;;;;;;;;;1667724;85;21065;-65
2022/08/02 12:06:35;;;;;;;13.35;10.23;;;;;;;;;;1665653;84;21113;-62
2022/08/02 12:09:07;;;;;;;6.55;5.75;;;;;;;;;;1665971;84;21069;-63
2022/08/02 12:11:38;;;;;;;5.85;5.28;;;;;;;;;;1656647;85;21045;-65
2022/08/02 12:14:04;;;;;;;7.10;4.78;;;;;;;;;;1629563;86;21013;-64
2022/08/02 12:19:19;;;;;;;7.37;5.00;;;;;;;;;;1637969;87;21106;-63
2022/08/02 12:21:45;;;;;;;5.35;4.85;;;;;;;;;;1654562;87;21041;-63
2022/08/02 12:24:11;;;;;;;6.58;5.37;;;;;;;;;;1610791;88;21041;-64
2022/08/02 12:26:43;;;;;;;6.17;5.25;;;;;;;;;;1598553;88;21742;-64
2022/08/02 12:29:09;;;;;;;7.55;5.08;;;;;;;;;;1627524;88;21077;-63
2022/08/02 12:31:40;;;;;;;8.03;5.03;;;;;;;;;;1627617;87;21125;-64
2022/08/02 12:34:15;;;;;;;6.20;4.90;;;;;;;;;;1623589;87;21082;-64
2022/08/02 12:36:41;;;;;;;7.83;6.33;;;;;;;;;;1656720;85;21087;-63
2022/08/02 12:39:09;;;;;;;6.95;5.17;;;;;;;;;;1661416;85;21427;-64
2022/08/02 12:41:36;;;;;;;7.05;5.28;;;;;;;;;;1664956;86;21068;-64
2022/08/02 12:44:02;;;;;;;8.28;5.42;;;;;;;;;;1655743;85;21091;-65
2022/08/02 12:46:30;;;;;;;5.95;5.17;;;;;;;;;;1654299;86;21053;-65
2022/08/02 12:48:58;;;;;;;5.78;5.20;;;;;;;;;;1648503;87;21030;-64
2022/08/02 12:51:29;;;;;;;10.32;5.83;;;;;;;;;;1652854;87;21644;-65
2022/08/02 12:53:57;;;;;;;6.35;5.70;;;;;;;;;;1647376;87;21093;-65
2022/08/02 12:56:30;;;;;;;7.60;5.28;;;;;;;;;;1637955;86;21748;-66
2022/08/02 12:58:56;;;;;;;5.97;5.00;;;;;;;;;;1626676;88;21049;-66
2022/08/02 13:01:23;;;;;;;7.00;5.30;;;;;;;;;;1654976;86;21055;-65
2022/08/02 13:03:49;;;;;;;9.80;6.40;;;;;;;;;;1651239;86;21089;-65
2022/08/02 13:06:15;;;;;;;7.58;5.53;;;;;;;;;;1653360;85;21049;-65
2022/08/02 13:08:42;;;;;;;7.62;5.65;;;;;;;;;;1617084;88;21117;-66
2022/08/02 13:11:08;;;;;;;6.33;5.58;;;;;;;;;;1643553;87;21040;-64
2022/08/02 13:13:34;;;;;;;51.73;46.60;;;;;;;;;;1644731;84;21662;-67
2022/08/02 13:16:00;;;;;;;16.90;14.10;;;;;;;;;;1643584;87;21065;-68
2022/08/02 13:18:26;;;;;;;24.32;20.60;;;;;;;;;;1646026;87;21101;-68
2022/08/02 13:20:52;;;;;;;9.60;7.03;;;;;;;;;;1638964;85;21039;-66
2022/08/02 13:23:18;;;;;;;6.40;5.05;;;;;;;;;;1642015;86;21582;-67
2022/08/02 13:25:44;;;;;;;8.13;5.22;;;;;;;;;;1644006;85;21080;-66
2022/08/02 13:28:10;;;;;;;5.62;4.70;;;;;;;;;;1644544;85;21116;-66
2022/08/02 13:30:36;;;;;;;7.15;4.85;;;;;;;;;;1635554;87;21068;-65
2022/08/02 13:33:02;;;;;;;6.25;4.28;;;;;;;;;;1645942;87;21052;-66
2022/08/02 13:35:28;;;;;;;5.80;4.87;;;;;;;;;;1645263;87;21073;-66
2022/08/02 13:37:54;;;;;;;7.65;5.12;;;;;;;;;;1645175;87;21591;-66
2022/08/02 13:40:21;;;;;;;5.92;4.60;;;;;;;;;;1645125;87;21527;-67
2022/08/02 13:42:48;;;;;;;4.70;4.17;;;;;;;;;;1644471;86;21016;-66
2022/08/02 13:45:14;;;;;;;4.70;4.30;;;;;;;;;;1645513;87;21063;-66
2022/08/02 13:47:43;;;;;;;4.62;4.22;;;;;;;;;;1646194;87;21096;-67
2022/08/02 13:50:09;;;;;;;7.83;4.75;;;;;;;;;;1642614;87;21039;-66
2022/08/02 13:52:36;;;;;;;5.92;4.30;;;;;;;;;;1645735;87;21095;-65
2022/08/02 13:55:02;;;;;;;4.78;4.28;;;;;;;;;;1645560;85;21052;-66
2022/08/02 13:57:28;;;;;;;6.78;4.42;;;;;;;;;;1644377;86;21075;-67
2022/08/02 13:59:54;;;;;;;5.20;4.70;;;;;;;;;;1645643;85;21115;-67
2022/08/02 14:02:20;;;;;;;7.45;5.60;;;;;;;;;;1645317;87;21649;-66
2022/08/02 14:04:47;;;;;;;8.98;5.20;;;;;;;;;;1639469;86;21487;-65
2022/08/02 14:07:13;;;;;;;6.35;4.45;;;;;;;;;;1645575;85;21602;-66
2022/08/02 14:09:39;;;;;;;5.17;4.65;;;;;;;;;;1640635;87;21044;-65
2022/08/02 14:12:05;;;;;;;7.72;4.87;;;;;;;;;;1632595;86;21083;-67
2022/08/02 14:14:36;;;;;;;5.22;4.22;;;;;;;;;;1656767;84;21080;-66
2022/08/02 14:17:00;;;;;;;4.45;3.77;;;;;;;;;;1695801;84;21686;-64
2022/08/02 14:19:25;;;;;;;6.25;4.65;;;;;;;;;;1668178;86;21074;-64
2022/08/02 14:21:51;;;;;;;6.45;4.40;;;;;;;;;;1668168;86;21077;-64
2022/08/02 14:24:18;;;;;;;7.00;4.42;;;;;;;;;;1674035;84;21036;-66
2022/08/02 14:26:45;;;;;;;7.03;4.00;;;;;;;;;;1668947;84;21687;-66
2022/08/02 14:29:11;;;;;;;6.78;4.30;;;;;;;;;;1668228;86;21508;-68
2022/08/02 14:31:37;;;;;;;6.05;4.33;;;;;;;;;;1668330;85;21021;-65
2022/08/02 14:34:03;;;;;;;5.03;3.77;;;;;;;;;;1669700;85;21047;-66
2022/08/02 14:36:29;;;;;;;4.25;3.72;;;;;;;;;;1670376;85;21037;-65
2022/08/02 14:38:55;;;;;;;6.58;4.15;;;;;;;;;;1668013;85;21041;-67
2022/08/02 14:41:22;;;;;;;4.40;3.70;;;;;;;;;;1669539;85;21537;-66
2022/08/02 14:44:04;;;;;;;4.35;3.58;;;;;;;;;;1668217;86;21120;-66
2022/08/02 14:46:31;;;;;;;5.72;3.87;;;;;;;;;;1668241;86;21056;-66
2022/08/02 14:49:00;;;;;;;5.92;4.10;;;;;;;;;;1668254;86;22219;-67
2022/08/02 14:51:25;;;;;;;6.60;3.77;;;;;;;;;;1661913;86;21065;-68